Time;durP1;ratioP1;P1;durP2;ratioP2;P2;SDS_P1;SDS_P2;PMS_P1;PMS_P2;Temp;Humidity;BMP_temperature;BMP_pressure;BME280_temperature;BME280_humidity;BME280_pressure;Samples;Min_cycle;Max_cycle;Signal;HPM_P1;HPM_P2
2022/06/13 00:01:16;;;;;;;4.30;2.90;;;;;;;20.95;45.91;100294.79;105876;1271;22540;-69
2022/06/13 00:03:43;;;;;;;5.90;3.00;;;;;;;20.94;45.99;100299.31;106146;1271;25475;-74
2022/06/13 00:06:10;;;;;;;4.30;2.50;;;;;;;20.93;45.82;100293.95;105934;1272;24323;-70
2022/06/13 00:08:37;;;;;;;4.80;3.00;;;;;;;20.92;45.89;100293.46;105997;1274;22841;-70
2022/06/13 00:11:13;;;;;;;8.50;3.60;;;;;;;20.95;46.18;100298.70;106232;1271;25242;-69
2022/06/13 00:13:42;;;;;;;6.50;2.80;;;;;;;20.94;46.22;100297.12;106243;1271;22564;-68
2022/06/13 00:16:10;;;;;;;4.20;3.70;;;;;;;20.95;46.65;100302.80;106340;1271;22604;-69
2022/06/13 00:18:38;;;;;;;4.60;3.30;;;;;;;20.96;46.42;100301.87;106163;1272;22529;-71
2022/06/13 00:21:05;;;;;;;4.40;3.00;;;;;;;20.95;46.64;100305.17;106094;1272;24590;-71
2022/06/13 00:23:36;;;;;;;3.70;3.00;;;;;;;20.89;46.90;100307.55;106063;1271;22530;-70
2022/06/13 00:26:03;;;;;;;3.40;2.60;;;;;;;20.85;47.09;100305.46;106048;1271;24289;-72
2022/06/13 00:28:30;;;;;;;5.50;3.60;;;;;;;20.78;47.53;100301.52;106152;1271;22743;-70
2022/06/13 00:30:57;;;;;;;5.50;3.10;;;;;;;20.67;47.86;100304.04;106136;1272;22707;-73
2022/06/13 00:33:24;;;;;;;4.80;3.50;;;;;;;20.53;48.34;100310.36;106008;1271;22836;-71
2022/06/13 00:35:51;;;;;;;7.10;3.80;;;;;;;20.44;48.69;100311.90;106001;1271;24662;-69
2022/06/13 00:38:18;;;;;;;8.20;3.90;;;;;;;20.28;49.22;100316.61;105981;1271;25360;-69
2022/06/13 00:40:45;;;;;;;8.40;3.80;;;;;;;20.18;49.73;100317.10;105838;1271;22727;-73
2022/06/13 00:43:15;;;;;;;8.20;4.50;;;;;;;20.11;50.37;100326.40;105968;1271;22548;-68
2022/06/13 00:45:42;;;;;;;6.60;3.80;;;;;;;20.02;51.67;100344.72;106075;1273;25251;-70
2022/06/13 00:48:14;;;;;;;7.20;4.40;;;;;;;19.83;53.15;100364.21;106486;1271;22544;-66
2022/06/13 00:50:55;;;;;;;6.40;3.80;;;;;;;19.67;53.88;100381.56;106266;1271;22528;-72
2022/06/13 00:53:31;;;;;;;8.40;4.40;;;;;;;19.56;55.25;100392.08;106105;1271;22543;-74
2022/06/13 00:55:59;;;;;;;;;;;;;;;19.47;55.92;100415.19;106299;1271;23129;-69
2022/06/13 00:58:30;;;;;;;6.70;3.40;;;;;;;19.31;57.09;100410.34;106211;1271;22574;-68
2022/06/13 01:00:59;;;;;;;8.20;4.50;;;;;;;19.14;58.56;100409.86;106460;1271;22693;-73
2022/06/13 01:03:28;;;;;;;8.40;4.00;;;;;;;18.94;58.98;100408.39;106144;1271;22544;-70
2022/06/13 01:06:00;;;;;;;8.30;3.90;;;;;;;18.80;59.86;100416.46;106072;1271;24461;-67
2022/06/13 01:08:30;;;;;;;6.90;3.40;;;;;;;18.68;60.54;100407.71;106078;1273;22560;-66
2022/06/13 01:11:16;;;;;;;7.30;4.20;;;;;;;18.63;61.31;100390.63;106122;1271;25667;-70
2022/06/13 01:14:02;;;;;;;;;;;;;;;18.63;61.78;100381.01;106183;1271;22671;-72
2022/06/13 01:16:47;;;;;;;10.40;4.40;;;;;;;18.61;62.63;100379.29;106284;1271;25367;-68
2022/06/13 01:19:35;;;;;;;8.10;4.40;;;;;;;18.65;63.18;100383.41;106188;1271;24744;-69
2022/06/13 01:22:40;;;;;;;10.20;4.10;;;;;;;18.65;63.45;100380.73;106076;1271;22695;-71
2022/06/13 01:25:58;;;;;;;6.90;3.50;;;;;;;18.55;63.66;100366.52;106324;1271;22534;-71
2022/06/13 01:28:59;;;;;;;5.90;3.60;;;;;;;18.58;64.10;100352.48;105865;1272;22718;-71
2022/06/13 01:31:47;;;;;;;7.20;4.00;;;;;;;18.64;64.59;100351.70;105638;1276;22531;-72
2022/06/13 01:34:17;;;;;;;6.30;3.70;;;;;;;18.66;64.83;100351.77;105525;1276;25322;-69
2022/06/13 01:36:59;;;;;;;7.40;3.80;;;;;;;18.64;64.79;100341.73;105578;1276;22562;-69
2022/06/13 01:39:50;;;;;;;6.90;3.20;;;;;;;18.60;65.06;100331.53;105619;1276;22535;-68
2022/06/13 01:42:35;;;;;;;7.40;3.10;;;;;;;18.67;65.30;100318.75;105776;1276;22730;-67
2022/06/13 01:45:37;;;;;;;4.90;3.20;;;;;;;18.72;65.31;100313.01;105715;1276;22574;-66
2022/06/13 01:48:07;;;;;;;5.90;3.30;;;;;;;18.69;65.26;100309.56;105718;1276;22869;-69
2022/06/13 01:50:46;;;;;;;5.80;3.10;;;;;;;18.65;65.35;100303.86;106011;1271;25237;-67
2022/06/13 01:53:27;;;;;;;8.90;3.40;;;;;;;18.57;65.35;100292.42;105970;1271;24447;-70
2022/06/13 01:56:10;;;;;;;7.70;3.70;;;;;;;18.48;65.57;100295.14;106015;1271;23013;-69
2022/06/13 01:58:46;;;;;;;6.50;3.10;;;;;;;18.45;65.92;100297.98;106167;1271;25207;-69
2022/06/13 02:01:20;;;;;;;5.20;2.70;;;;;;;18.42;65.90;100296.27;106091;1273;22537;-70
2022/06/13 02:03:58;;;;;;;6.20;3.60;;;;;;;18.38;66.07;100287.19;106115;1271;23915;-71
2022/06/13 02:06:35;;;;;;;4.30;2.70;;;;;;;18.41;66.09;100284.23;106221;1271;22546;-70
2022/06/13 02:09:07;;;;;;;7.90;3.20;;;;;;;18.39;66.20;100278.94;106107;1272;22761;-74
2022/06/13 02:11:48;;;;;;;7.50;3.40;;;;;;;18.38;66.26;100272.21;106094;1273;26500;-71
2022/06/13 02:14:18;;;;;;;7.20;3.60;;;;;;;18.36;66.29;100266.08;106319;1271;25616;-72
2022/06/13 02:16:55;;;;;;;8.30;3.00;;;;;;;18.34;66.41;100262.44;106195;1271;24309;-71
2022/06/13 02:19:34;;;;;;;5.80;3.20;;;;;;;18.32;66.35;100263.75;106248;1271;25517;-65
2022/06/13 02:22:10;;;;;;;6.70;3.10;;;;;;;18.29;66.44;100263.84;106169;1271;22534;-70
2022/06/13 02:24:47;;;;;;;5.70;2.60;;;;;;;18.26;66.59;100267.02;106136;1273;25453;-69
2022/06/13 02:27:18;;;;;;;8.40;3.20;;;;;;;18.23;66.59;100259.85;105892;1271;22759;-71
2022/06/13 02:29:50;;;;;;;5.60;3.20;;;;;;;18.20;66.66;100256.05;105785;1277;24265;-70
2022/06/13 02:32:24;;;;;;;6.60;3.60;;;;;;;18.15;66.90;100251.28;105734;1277;22529;-73
2022/06/13 02:35:26;;;;;;;6.70;3.10;;;;;;;18.13;66.87;100248.69;105735;1276;22803;-72
2022/06/13 02:38:07;;;;;;;6.30;3.30;;;;;;;18.12;67.06;100251.94;105708;1276;22550;-76
2022/06/13 02:40:45;;;;;;;5.90;2.80;;;;;;;18.11;67.29;100250.19;105884;1276;24239;-70
2022/06/13 02:43:19;;;;;;;6.20;3.30;;;;;;;18.07;67.13;100247.30;105835;1276;22757;-73
2022/06/13 02:45:52;;;;;;;5.00;2.90;;;;;;;18.03;67.35;100238.73;105843;1276;22971;-76
2022/06/13 02:48:37;;;;;;;9.00;3.90;;;;;;;18.04;67.59;100238.33;105886;1273;23389;-69
2022/06/13 02:51:08;;;;;;;9.60;3.40;;;;;;;18.09;67.77;100234.05;106298;1271;24623;-69
2022/06/13 02:53:47;;;;;;;6.30;3.10;;;;;;;18.11;67.69;100231.65;106232;1271;22825;-69
2022/06/13 02:57:23;;;;;;;5.50;3.20;;;;;;;18.07;67.76;100218.09;106332;1270;22627;-70
2022/06/13 02:59:51;;;;;;;7.60;3.60;;;;;;;18.04;67.80;100212.86;106338;1271;22537;-74
2022/06/13 03:02:27;;;;;;;5.90;3.20;;;;;;;17.98;67.66;100211.52;106067;1272;22538;-72
2022/06/13 03:05:00;;;;;;;5.20;3.00;;;;;;;17.96;67.73;100205.19;105911;1273;26499;-75
2022/06/13 03:07:35;;;;;;;6.90;3.10;;;;;;;17.97;67.84;100206.40;106439;1273;25618;-69
2022/06/13 03:10:11;;;;;;;4.90;3.00;;;;;;;17.98;67.65;100206.17;106480;1273;23225;-68
2022/06/13 03:13:05;;;;;;;6.10;3.10;;;;;;;17.99;67.58;100203.85;107059;1273;25500;-69
2022/06/13 03:15:45;;;;;;;8.70;3.80;;;;;;;17.97;67.41;100208.36;106567;1276;22565;-73
2022/06/13 03:18:19;;;;;;;7.00;3.60;;;;;;;17.95;67.35;100208.12;106145;1277;24462;-72
2022/06/13 03:21:12;;;;;;;10.90;3.90;;;;;;;17.90;67.47;100204.56;106183;1277;25246;-68
2022/06/13 03:23:53;;;;;;;6.20;3.30;;;;;;;17.92;67.59;100210.33;106060;1275;23968;-71
2022/06/13 03:26:25;;;;;;;7.40;3.20;;;;;;;17.92;67.57;100207.86;106019;1277;22698;-70
2022/06/13 03:29:04;;;;;;;6.50;3.30;;;;;;;17.93;67.67;100204.58;105930;1277;24273;-75
2022/06/13 03:31:38;;;;;;;9.40;3.30;;;;;;;17.96;67.71;100197.17;105791;1279;23920;-70
2022/06/13 03:34:17;;;;;;;8.10;3.90;;;;;;;17.96;67.61;100194.89;105830;1276;24284;-67
2022/06/13 03:36:49;;;;;;;4.90;3.30;;;;;;;17.94;67.61;100197.27;105158;1284;22786;-67
2022/06/13 03:39:18;;;;;;;5.90;3.40;;;;;;;17.96;67.60;100200.02;105029;1284;22539;-67
2022/06/13 03:41:50;;;;;;;7.30;3.90;;;;;;;17.99;67.58;100200.44;105185;1284;22563;-67
2022/06/13 03:44:24;;;;;;;7.40;3.70;;;;;;;17.96;67.74;100198.06;105421;1282;25630;-67
2022/06/13 03:46:56;;;;;;;8.20;3.70;;;;;;;18.00;67.69;100193.27;105252;1284;22632;-69
2022/06/13 03:49:41;;;;;;;5.70;3.90;;;;;;;18.06;67.93;100191.55;105357;1281;22636;-66
2022/06/13 03:52:11;;;;;;;9.30;3.90;;;;;;;18.14;67.82;100191.63;105647;1281;25679;-69
2022/06/13 03:54:45;;;;;;;6.60;3.90;;;;;;;18.18;67.55;100196.27;105711;1273;25592;-71
2022/06/13 03:57:24;;;;;;;7.40;4.00;;;;;;;18.24;67.70;100206.88;106116;1273;22539;-69
2022/06/13 03:59:59;;;;;;;6.20;3.90;;;;;;;18.24;67.59;100210.80;106064;1272;24474;-69
2022/06/13 04:02:33;;;;;;;7.60;4.10;;;;;;;18.21;67.70;100220.17;105969;1273;22648;-70
2022/06/13 04:05:00;;;;;;;10.30;4.50;;;;;;;18.23;67.70;100229.02;106143;1271;23822;-71
2022/06/13 04:07:32;;;;;;;7.00;3.60;;;;;;;18.27;67.28;100238.98;106168;1272;23918;-68
2022/06/13 04:10:12;;;;;;;7.70;4.10;;;;;;;18.30;66.99;100248.13;105986;1271;24431;-70
2022/06/13 04:12:56;;;;;;;6.40;3.60;;;;;;;18.27;66.71;100255.73;105624;1279;22542;-67
2022/06/13 04:15:53;;;;;;;6.20;3.90;;;;;;;18.22;66.92;100256.33;105557;1279;24443;-68
2022/06/13 04:18:52;;;;;;;8.80;4.60;;;;;;;18.14;66.74;100249.33;105666;1278;22853;-68
2022/06/13 04:21:40;;;;;;;7.00;4.10;;;;;;;18.03;67.04;100244.96;105758;1279;22543;-74
2022/06/13 04:24:17;;;;;;;8.20;4.50;;;;;;;17.95;67.46;100246.40;105735;1279;25318;-76
2022/06/13 04:26:49;;;;;;;7.60;3.80;;;;;;;17.94;67.93;100249.98;105324;1284;24969;-73
2022/06/13 04:29:42;;;;;;;7.90;4.40;;;;;;;17.91;67.73;100249.57;105259;1284;22576;-73
2022/06/13 04:32:12;;;;;;;7.40;5.00;;;;;;;17.87;67.90;100253.52;105614;1278;22580;-75
2022/06/13 04:34:46;;;;;;;10.20;4.60;;;;;;;17.82;68.06;100252.98;105254;1284;22630;-73
2022/06/13 04:37:15;;;;;;;10.30;4.90;;;;;;;17.80;68.38;100245.56;105255;1284;22554;-76
2022/06/13 04:39:44;;;;;;;7.80;4.00;;;;;;;17.78;68.64;100238.88;105398;1284;23089;-79
2022/06/13 04:42:14;;;;;;;9.30;4.50;;;;;;;17.81;68.55;100232.89;105165;1284;25487;-80
2022/06/13 04:44:42;;;;;;;7.30;4.20;;;;;;;17.88;68.74;100229.23;105359;1278;22703;-77
2022/06/13 04:47:14;;;;;;;7.00;3.80;;;;;;;17.97;68.66;100227.27;106243;1279;26658;-74
2022/06/13 04:49:52;;;;;;;11.70;4.40;;;;;;;17.98;68.28;100225.98;105786;1278;23972;-75
2022/06/13 04:52:30;;;;;;;8.30;4.70;;;;;;;17.92;68.68;100217.65;105826;1273;22553;-75
2022/06/13 04:55:12;;;;;;;11.00;4.40;;;;;;;18.01;68.41;100215.84;106214;1271;22593;-74
2022/06/13 04:57:39;;;;;;;7.60;4.00;;;;;;;18.05;68.34;100213.55;106157;1273;22592;-76
2022/06/13 05:00:10;;;;;;;5.90;4.40;;;;;;;18.04;68.25;100210.54;106168;1271;22679;-76
2022/06/13 05:02:43;;;;;;;8.20;5.30;;;;;;;18.02;68.55;100214.02;106163;1272;22691;-75
2022/06/13 05:05:36;;;;;;;6.90;4.30;;;;;;;18.05;68.84;100217.63;106303;1271;22561;-74
2022/06/13 05:08:20;;;;;;;9.10;6.00;;;;;;;18.01;68.73;100221.91;106062;1271;25422;-76
2022/06/13 05:10:50;;;;;;;7.70;4.60;;;;;;;18.01;69.03;100218.00;105895;1271;22578;-73
2022/06/13 05:13:18;;;;;;;7.10;4.50;;;;;;;18.00;69.15;100215.54;106126;1271;24261;-74
2022/06/13 05:15:53;;;;;;;8.70;4.60;;;;;;;17.98;68.98;100209.92;105980;1273;22617;-79
2022/06/13 05:18:45;;;;;;;5.20;4.70;;;;;;;18.07;69.52;100209.90;106051;1273;25361;-80
2022/06/13 05:21:39;;;;;;;7.00;4.30;;;;;;;18.07;69.28;100202.05;106046;1273;24886;-74
2022/06/13 05:24:30;;;;;;;8.30;5.10;;;;;;;18.16;69.70;100203.11;105898;1274;25525;-75
2022/06/13 05:27:06;;;;;;;9.00;4.70;;;;;;;18.32;69.58;100201.18;106016;1273;25508;-72
2022/06/13 05:29:34;;;;;;;5.90;4.60;;;;;;;18.40;69.54;100194.59;106094;1273;22556;-75
2022/06/13 05:32:02;;;;;;;17.00;6.10;;;;;;;18.51;69.72;100198.19;106160;1273;26502;-75
2022/06/13 05:34:37;;;;;;;11.00;6.00;;;;;;;18.58;69.38;100199.48;106149;1273;24176;-73
2022/06/13 05:37:05;;;;;;;10.60;6.10;;;;;;;18.66;69.29;100199.82;106219;1271;25507;-76
2022/06/13 05:39:35;;;;;;;9.80;6.40;;;;;;;18.70;69.13;100193.42;106040;1271;26580;-76
2022/06/13 05:42:03;;;;;;;8.00;6.70;;;;;;;18.71;68.85;100188.39;106284;1274;25326;-79
2022/06/13 05:44:30;;;;;;;8.70;6.40;;;;;;;18.73;69.00;100189.90;106227;1272;24125;-78
2022/06/13 05:46:57;;;;;;;7.10;6.40;;;;;;;18.73;69.22;100191.85;106178;1271;22714;-80
2022/06/13 05:49:24;;;;;;;12.00;6.90;;;;;;;18.73;68.94;100189.38;105841;1276;24270;-80
2022/06/13 05:51:51;;;;;;;7.60;6.90;;;;;;;18.64;68.96;100183.52;105638;1276;22859;-82
2022/06/13 05:54:18;;;;;;;10.40;7.70;;;;;;;18.58;69.01;100181.98;105715;1276;24107;-79
2022/06/13 05:56:45;;;;;;;10.00;7.50;;;;;;;18.55;69.41;100183.52;105843;1276;22566;-82
2022/06/13 05:59:12;;;;;;;10.70;8.10;;;;;;;18.55;69.48;100183.20;105788;1276;23533;-82
2022/06/13 06:01:39;;;;;;;10.90;8.60;;;;;;;18.54;69.49;100187.01;105974;1276;22604;-81
2022/06/13 06:04:06;;;;;;;14.70;7.90;;;;;;;18.54;69.64;100185.58;105944;1276;22541;-81
2022/06/13 06:06:34;;;;;;;9.30;7.70;;;;;;;18.58;69.86;100178.30;105885;1276;22956;-81
2022/06/13 06:09:02;;;;;;;10.50;8.80;;;;;;;18.62;69.88;100179.35;106011;1273;25402;-81
2022/06/13 06:11:30;;;;;;;10.50;8.90;;;;;;;18.63;69.79;100182.84;106208;1273;22633;-82
2022/06/13 06:13:57;;;;;;;12.90;9.20;;;;;;;18.56;69.78;100180.50;106322;1271;22620;-82
2022/06/13 06:16:26;;;;;;;10.40;7.60;;;;;;;18.52;70.20;100175.52;106422;1272;25256;-83
2022/06/13 06:18:54;;;;;;;10.20;7.60;;;;;;;18.56;70.31;100171.94;106397;1271;24273;-82
2022/06/13 06:21:22;;;;;;;10.40;8.10;;;;;;;18.60;70.13;100164.11;106257;1271;23194;-81
2022/06/13 06:23:49;;;;;;;8.30;7.60;;;;;;;18.51;70.20;100157.72;105881;1278;23995;-81
2022/06/13 06:26:22;;;;;;;15.00;8.30;;;;;;;18.51;70.20;100155.23;107010;1276;24351;-79
2022/06/13 06:28:50;;;;;;;14.60;8.90;;;;;;;18.47;70.12;100153.83;107693;1276;25251;-76
2022/06/13 06:31:17;;;;;;;10.70;7.20;;;;;;;18.52;70.50;100149.64;106064;1276;24317;-80
2022/06/13 06:33:44;;;;;;;10.60;7.70;;;;;;;18.60;70.46;100138.23;106020;1276;26068;-82
2022/06/13 06:36:12;;;;;;;9.80;6.90;;;;;;;18.68;70.45;100133.77;105813;1276;24878;-81
2022/06/13 06:38:39;;;;;;;10.30;7.90;;;;;;;18.87;70.43;100135.56;106118;1276;22531;-81
2022/06/13 06:41:06;;;;;;;8.20;7.40;;;;;;;19.04;70.08;100131.89;106498;1275;22550;-79
2022/06/13 06:43:33;;;;;;;8.60;6.90;;;;;;;19.21;69.72;100132.69;107548;1271;24124;-78
2022/06/13 06:46:00;;;;;;;8.90;8.00;;;;;;;19.35;69.09;100126.63;107666;1271;22503;-78
2022/06/13 06:48:28;;;;;;;8.90;6.90;;;;;;;19.46;68.93;100131.66;107087;1273;25327;-79
2022/06/13 06:50:56;;;;;;;10.40;7.10;;;;;;;19.57;68.71;100130.17;107045;1271;25248;-79
2022/06/13 06:53:26;;;;;;;10.40;7.00;;;;;;;19.73;68.38;100129.92;107060;1273;25360;-78
2022/06/13 07:01:28;;;;;;;8.60;6.90;;;;;;;20.19;67.36;100105.06;107610;1273;25369;-78
2022/06/13 07:03:55;;;;;;;8.80;6.70;;;;;;;20.32;66.99;100104.70;107732;1271;22553;-81
2022/06/13 07:06:22;;;;;;;8.80;6.80;;;;;;;20.45;66.62;100098.61;107326;1272;22580;-80
2022/06/13 07:08:49;;;;;;;7.10;6.10;;;;;;;20.55;66.18;100098.64;107089;1271;23916;-78
2022/06/13 07:14:08;;;;;;;8.90;6.20;;;;;;;20.69;65.42;100098.39;106709;1272;25301;-80
2022/06/13 07:16:35;;;;;;;10.70;5.70;;;;;;;20.72;65.06;100103.76;106962;1271;25002;-79
2022/06/13 07:19:02;;;;;;;8.30;5.20;;;;;;;20.69;64.52;100105.02;107127;1271;22532;-80
2022/06/13 07:21:29;;;;;;;9.10;4.80;;;;;;;20.64;64.19;100104.21;107365;1271;22530;-78
2022/06/13 07:23:56;;;;;;;7.00;5.20;;;;;;;20.62;63.78;100103.98;107168;1273;23955;-79
2022/06/13 07:26:23;;;;;;;6.90;4.70;;;;;;;20.58;63.64;100105.61;107106;1271;22536;-78
2022/06/13 07:28:55;;;;;;;6.00;4.10;;;;;;;20.57;63.13;100103.55;107479;1273;22595;-79
2022/06/13 07:31:31;;;;;;;7.00;4.40;;;;;;;20.55;63.28;100099.70;107311;1272;23096;-79
2022/06/13 07:33:58;;;;;;;6.50;4.50;;;;;;;20.64;63.68;100096.17;107251;1271;22560;-80
2022/06/13 07:36:25;;;;;;;10.50;4.20;;;;;;;20.74;63.36;100096.13;106944;1273;25240;-79
2022/06/13 07:38:52;;;;;;;5.00;4.60;;;;;;;20.79;62.67;100105.52;107439;1271;22550;-80
2022/06/13 07:41:23;;;;;;;5.90;4.40;;;;;;;20.80;63.06;100111.93;107659;1271;25365;-90
2022/06/13 07:43:52;;;;;;;4.60;3.90;;;;;;;20.85;62.63;100113.26;107257;1272;24285;-80
2022/06/13 07:46:24;;;;;;;4.10;3.50;;;;;;;20.87;62.04;100103.98;107048;1271;25630;-88
2022/06/13 07:48:51;;;;;;;3.80;3.40;;;;;;;20.88;61.92;100105.93;106553;1273;22647;-80
2022/06/13 07:51:21;;;;;;;6.30;3.70;;;;;;;20.88;61.82;100104.81;106619;1271;23919;-80
2022/06/13 07:53:48;;;;;;;4.50;3.10;;;;;;;20.94;61.27;100102.92;106602;1271;22498;-80
2022/06/13 07:56:28;;;;;;;9.10;3.20;;;;;;;21.02;61.39;100111.06;106910;1271;22956;-80
2022/06/13 07:58:57;;;;;;;4.90;2.70;;;;;;;21.07;60.57;100103.85;107091;1271;25250;-78
2022/06/13 08:01:25;;;;;;;6.90;3.40;;;;;;;21.07;60.59;100095.76;106906;1273;22680;-79
2022/06/13 08:03:53;;;;;;;6.70;2.60;;;;;;;21.11;60.63;100093.21;106831;1272;22528;-80
2022/06/13 08:06:21;;;;;;;3.50;2.40;;;;;;;21.10;60.19;100087.89;106771;1272;24264;-81
2022/06/13 08:08:49;;;;;;;5.10;2.90;;;;;;;21.11;60.25;100094.13;106878;1273;22543;-80
2022/06/13 08:11:32;;;;;;;3.80;3.00;;;;;;;21.11;59.89;100091.26;106793;1279;25253;-80
2022/06/13 08:14:00;;;;;;;6.10;2.60;;;;;;;21.09;59.59;100093.28;106685;1277;417898;-80
2022/06/13 08:16:28;;;;;;;4.00;2.70;;;;;;;21.17;59.94;100091.81;106903;1278;22645;-81
2022/06/13 08:18:56;;;;;;;3.00;2.60;;;;;;;21.26;60.30;100096.80;106900;1278;22540;-80
2022/06/13 08:21:23;;;;;;;6.50;3.20;;;;;;;21.38;60.57;100096.81;106970;1278;23994;-80
2022/06/13 08:23:50;;;;;;;4.00;2.80;;;;;;;21.46;60.03;100096.16;107073;1278;22715;-81
2022/06/13 08:26:17;;;;;;;3.50;2.70;;;;;;;21.45;59.70;100086.03;107068;1278;23847;-78
2022/06/13 08:28:44;;;;;;;3.60;2.70;;;;;;;21.47;59.71;100077.68;107798;1272;22473;-79
2022/06/13 08:31:14;;;;;;;6.00;3.60;;;;;;;21.48;59.81;100068.28;108457;1271;22621;-79
2022/06/13 08:33:42;;;;;;;3.40;2.40;;;;;;;21.51;59.42;100058.93;108592;1273;22549;-80
2022/06/13 08:36:11;;;;;;;3.40;2.90;;;;;;;21.51;59.33;100057.34;108314;1271;22564;-79
2022/06/13 08:38:38;;;;;;;4.80;2.70;;;;;;;21.55;59.66;100058.20;107930;1271;22511;-78
2022/06/13 08:41:15;;;;;;;6.00;2.50;;;;;;;21.60;59.46;100057.40;108118;1272;22469;-79
2022/06/13 08:43:51;;;;;;;3.30;2.50;;;;;;;21.63;58.95;100051.45;108042;1271;22485;-79
2022/06/13 08:46:29;;;;;;;4.20;2.50;;;;;;;21.65;58.61;100047.56;107490;1271;24227;-79
2022/06/13 08:49:28;;;;;;;3.80;2.60;;;;;;;21.65;58.14;100056.35;107502;1271;24230;-78
2022/06/13 08:52:13;;;;;;;3.00;2.60;;;;;;;21.65;57.31;100063.89;108144;1271;22568;-80
2022/06/13 08:54:42;;;;;;;2.80;2.30;;;;;;;21.57;57.07;100060.97;108419;1271;25309;-80
2022/06/13 08:57:11;;;;;;;5.20;2.50;;;;;;;21.51;57.20;100065.95;108071;1271;22567;-80
2022/06/13 09:00:03;;;;;;;4.30;2.40;;;;;;;21.49;57.41;100064.26;107703;1274;22535;-79
2022/06/13 09:02:47;;;;;;;3.30;2.40;;;;;;;21.47;57.42;100075.33;107910;1271;22913;-80
2022/06/13 09:05:27;;;;;;;4.00;2.60;;;;;;;21.44;57.58;100085.74;108614;1271;23215;-79
2022/06/13 09:08:32;;;;;;;3.10;2.70;;;;;;;21.35;57.75;100086.63;108733;1271;22538;-80
2022/06/13 09:11:16;;;;;;;2.70;2.40;;;;;;;21.32;58.34;100086.10;108643;1272;23031;-79
2022/06/13 09:13:55;;;;;;;4.70;2.60;;;;;;;21.27;58.24;100085.48;108979;1271;22540;-81
2022/06/13 09:16:34;;;;;;;3.80;2.90;;;;;;;21.21;58.62;100092.59;108341;1271;22553;-80
2022/06/13 09:19:09;;;;;;;4.20;3.00;;;;;;;21.16;58.87;100103.85;109053;1271;23020;-80
2022/06/13 09:22:17;;;;;;;3.40;3.00;;;;;;;21.13;59.16;100115.08;108353;1271;22533;-80
2022/06/13 09:25:03;;;;;;;5.30;3.20;;;;;;;21.07;59.57;100117.58;106447;1271;25380;-78
2022/06/13 09:27:37;;;;;;;6.70;3.50;;;;;;;21.03;60.02;100111.20;106321;1271;24319;-80
2022/06/13 09:30:06;;;;;;;3.50;3.20;;;;;;;21.04;59.97;100105.40;105840;1280;22545;-82
2022/06/13 09:32:45;;;;;;;5.90;3.30;;;;;;;21.03;59.92;100104.77;105881;1278;25898;-80
2022/06/13 09:35:23;;;;;;;5.70;3.20;;;;;;;20.97;59.94;100107.44;105828;1280;25428;-82
2022/06/13 09:38:03;;;;;;;4.30;3.00;;;;;;;20.90;60.24;100107.80;107295;1278;22650;-79
2022/06/13 09:40:52;;;;;;;2.80;2.60;;;;;;;20.87;60.21;100108.87;105802;1278;23106;-81
2022/06/13 09:43:52;;;;;;;3.00;2.40;;;;;;;20.73;60.22;100110.66;105757;1277;24332;-80
2022/06/13 09:46:34;;;;;;;4.70;2.70;;;;;;;20.61;60.51;100109.91;105677;1278;22636;-82
2022/06/13 09:49:36;;;;;;;6.90;3.00;;;;;;;20.56;61.10;100108.09;105557;1278;25293;-81
2022/06/13 09:52:40;;;;;;;2.70;2.30;;;;;;;20.55;61.62;100108.13;105891;1277;25315;-81
2022/06/13 09:55:24;;;;;;;3.40;3.10;;;;;;;20.44;62.36;100106.75;105930;1277;22480;-82
2022/06/13 09:57:53;;;;;;;3.40;3.00;;;;;;;20.38;62.92;100094.21;105910;1277;22668;-82
2022/06/13 10:00:58;;;;;;;4.40;3.50;;;;;;;20.35;63.43;100081.16;105997;1277;25474;-80
2022/06/13 10:03:59;;;;;;;3.30;3.00;;;;;;;20.26;63.92;100079.11;106029;1276;22544;-82
2022/06/13 10:06:55;;;;;;;4.40;2.70;;;;;;;20.19;64.40;100079.84;105658;1277;22622;-79
2022/06/13 10:09:44;;;;;;;3.40;3.00;;;;;;;20.08;64.79;100077.41;106045;1273;22548;-80
2022/06/13 10:12:31;;;;;;;3.60;3.30;;;;;;;20.08;64.92;100077.95;105778;1278;25446;-79
2022/06/13 10:15:25;;;;;;;5.10;3.40;;;;;;;20.11;65.07;100071.17;105740;1281;25429;-80
2022/06/13 10:18:13;;;;;;;4.10;3.40;;;;;;;20.12;65.27;100076.83;105572;1280;25239;-79
2022/06/13 10:20:58;;;;;;;3.50;2.80;;;;;;;20.04;65.23;100076.35;105067;1285;26009;-79
2022/06/13 10:23:25;;;;;;;2.90;2.60;;;;;;;20.00;64.55;100073.70;105327;1284;22544;-78
2022/06/13 10:26:04;;;;;;;2.90;2.50;;;;;;;20.03;64.19;100068.52;105354;1284;24242;-79
2022/06/13 10:28:57;;;;;;;3.50;3.00;;;;;;;20.10;64.51;100065.15;105339;1284;25324;-79
2022/06/13 10:31:43;;;;;;;4.60;3.00;;;;;;;20.15;64.73;100057.87;105601;1278;22479;-79
2022/06/13 10:34:13;;;;;;;3.20;2.70;;;;;;;20.23;64.49;100052.45;105561;1281;22688;-80
2022/06/13 10:36:58;;;;;;;2.90;2.30;;;;;;;20.25;64.18;100048.58;105486;1281;24832;-81
2022/06/13 10:39:26;;;;;;;3.10;2.80;;;;;;;20.23;64.10;100042.47;106073;1274;24215;-80
2022/06/13 10:42:20;;;;;;;3.80;2.90;;;;;;;20.27;64.08;100041.34;106088;1274;25250;-81
2022/06/13 10:44:48;;;;;;;3.30;2.80;;;;;;;20.37;63.87;100038.79;106024;1274;22868;-79
2022/06/13 10:47:22;;;;;;;4.50;3.30;;;;;;;20.42;63.43;100029.23;105972;1274;24262;-78
2022/06/13 10:49:56;;;;;;;4.80;3.00;;;;;;;20.39;62.92;100022.92;106134;1273;22600;-79
2022/06/13 10:52:26;;;;;;;3.80;3.20;;;;;;;20.43;63.26;100017.89;106108;1274;25239;-81
2022/06/13 10:55:08;;;;;;;5.00;3.20;;;;;;;20.51;62.94;100013.90;106073;1274;22532;-80
2022/06/13 10:57:41;;;;;;;3.00;2.70;;;;;;;20.49;62.56;100013.64;105656;1275;24283;-81
2022/06/13 11:00:11;;;;;;;4.00;2.70;;;;;;;20.58;62.24;100025.68;105963;1273;23291;-80
2022/06/13 11:02:38;;;;;;;4.80;2.60;;;;;;;20.63;61.87;100032.89;105870;1274;22548;-80
2022/06/13 11:05:10;;;;;;;3.30;2.80;;;;;;;20.64;61.60;100030.88;105975;1277;25320;-80
2022/06/13 11:07:59;;;;;;;3.30;2.70;;;;;;;20.59;61.65;100024.13;106263;1271;23124;-77
2022/06/13 11:10:40;;;;;;;5.00;3.00;;;;;;;20.59;61.39;100018.29;106025;1271;25416;-80
2022/06/13 11:13:15;;;;;;;6.00;2.60;;;;;;;20.53;61.68;100014.85;106013;1274;22549;-81
2022/06/13 11:24:45;;;;;;;3.10;2.60;;;;;;;20.49;61.28;99991.67;106538;1271;24265;-81
2022/06/13 11:27:41;;;;;;;4.30;2.40;;;;;;;20.46;61.14;99994.31;106659;1271;22605;-81
2022/06/13 11:30:26;;;;;;;4.30;2.90;;;;;;;20.38;61.45;99990.84;106420;1271;22537;-79
2022/06/13 11:32:57;;;;;;;3.30;2.50;;;;;;;20.36;61.17;99987.02;106313;1271;22633;-77
2022/06/13 11:35:38;;;;;;;4.20;2.80;;;;;;;20.34;61.30;99983.58;105500;1281;22556;-83
2022/06/13 11:38:19;;;;;;;3.90;3.10;;;;;;;20.35;61.39;99977.59;105977;1277;22533;-79
2022/06/13 11:41:10;;;;;;;4.10;2.70;;;;;;;20.39;61.15;99976.66;105940;1279;23056;-80
2022/06/13 11:43:37;;;;;;;3.10;2.70;;;;;;;20.45;61.33;99981.15;105804;1277;25315;-79
2022/06/13 11:46:10;;;;;;;3.50;2.60;;;;;;;20.48;61.17;99984.92;106141;1277;23970;-80
2022/06/13 11:48:45;;;;;;;4.00;2.40;;;;;;;20.50;61.10;99987.31;106103;1278;22538;-86
2022/06/13 11:51:22;;;;;;;6.60;2.50;;;;;;;20.51;60.86;99984.36;106156;1281;22569;-80
2022/06/13 11:53:56;;;;;;;3.10;2.60;;;;;;;20.49;60.70;99986.46;106506;1272;23557;-79
2022/06/13 11:56:27;;;;;;;2.70;2.30;;;;;;;20.45;60.59;99990.97;106394;1274;22591;-81
2022/06/13 11:58:56;;;;;;;3.20;2.60;;;;;;;20.38;60.57;99993.36;106238;1272;22726;-81
2022/06/13 12:01:32;;;;;;;2.90;2.20;;;;;;;20.30;60.98;100002.90;106267;1274;22697;-81
2022/06/13 12:04:12;;;;;;;3.10;2.50;;;;;;;20.21;61.09;100004.27;106157;1274;22534;-81
2022/06/13 12:06:58;;;;;;;2.80;2.50;;;;;;;20.13;61.81;100009.17;105968;1271;22561;-89
2022/06/13 12:09:32;;;;;;;2.70;2.50;;;;;;;20.09;61.79;100017.63;106107;1272;25387;-82
2022/06/13 12:12:08;;;;;;;4.00;3.00;;;;;;;20.02;62.04;100028.00;106310;1271;22564;-80
2022/06/13 12:14:41;;;;;;;7.50;4.00;;;;;;;19.84;62.44;100028.20;106499;1271;25306;-81